sensor_id;sensor_type;location;lat;lon;timestamp;P1;durP1;ratioP1;P2;durP2;ratioP2
49109;SDS011;34921;52.320;16.142;2023-04-23T00:19:55;29.10;;;17.55;;
49109;SDS011;34921;52.320;16.142;2023-04-23T00:22:23;34.20;;;17.07;;
49109;SDS011;34921;52.320;16.142;2023-04-23T00:35:27;28.05;;;15.45;;
49109;SDS011;34921;52.320;16.142;2023-04-23T01:36:51;46.95;;;22.15;;
49109;SDS011;34921;52.320;16.142;2023-04-23T02:34:20;26.17;;;17.25;;
49109;SDS011;34921;52.320;16.142;2023-04-23T02:36:51;32.03;;;18.02;;
49109;SDS011;34921;52.320;16.142;2023-04-23T02:39:22;28.45;;;16.40;;
49109;SDS011;34921;52.320;16.142;2023-04-23T02:41:53;25.90;;;16.48;;
49109;SDS011;34921;52.320;16.142;2023-04-23T02:46:57;29.10;;;17.62;;
49109;SDS011;34921;52.320;16.142;2023-04-23T02:49:28;25.88;;;17.52;;
49109;SDS011;34921;52.320;16.142;2023-04-23T02:51:59;29.33;;;17.30;;
49109;SDS011;34921;52.320;16.142;2023-04-23T02:57:02;29.97;;;17.63;;
49109;SDS011;34921;52.320;16.142;2023-04-23T02:59:33;30.85;;;17.35;;
49109;SDS011;34921;52.320;16.142;2023-04-23T03:02:04;26.90;;;17.85;;
49109;SDS011;34921;52.320;16.142;2023-04-23T03:04:35;29.82;;;17.02;;
49109;SDS011;34921;52.320;16.142;2023-04-23T03:14:44;26.73;;;16.80;;
49109;SDS011;34921;52.320;16.142;2023-04-23T03:17:15;26.17;;;17.50;;
49109;SDS011;34921;52.320;16.142;2023-04-23T03:25:24;26.47;;;16.93;;
49109;SDS011;34921;52.320;16.142;2023-04-23T04:12:40;27.32;;;16.77;;
49109;SDS011;34921;52.320;16.142;2023-04-23T04:20:30;22.70;;;14.90;;
49109;SDS011;34921;52.320;16.142;2023-04-23T04:30:54;22.63;;;14.27;;
49109;SDS011;34921;52.320;16.142;2023-04-23T04:41:26;16.05;;;10.88;;
49109;SDS011;34921;52.320;16.142;2023-04-23T04:46:33;17.55;;;11.25;;
49109;SDS011;34921;52.320;16.142;2023-04-23T04:54:13;17.70;;;12.18;;
49109;SDS011;34921;52.320;16.142;2023-04-23T04:59:14;17.37;;;11.40;;
49109;SDS011;34921;52.320;16.142;2023-04-23T05:01:45;19.67;;;11.20;;
49109;SDS011;34921;52.320;16.142;2023-04-23T05:04:16;18.02;;;11.25;;
49109;SDS011;34921;52.320;16.142;2023-04-23T05:06:47;18.02;;;10.82;;
49109;SDS011;34921;52.320;16.142;2023-04-23T05:09:18;16.77;;;11.25;;
49109;SDS011;34921;52.320;16.142;2023-04-23T05:19:19;19.35;;;11.48;;
49109;SDS011;34921;52.320;16.142;2023-04-23T05:29:20;16.07;;;11.33;;
49109;SDS011;34921;52.320;16.142;2023-04-23T05:34:21;16.17;;;11.20;;
49109;SDS011;34921;52.320;16.142;2023-04-23T05:39:23;18.67;;;12.43;;
49109;SDS011;34921;52.320;16.142;2023-04-23T05:44:27;20.83;;;11.67;;
49109;SDS011;34921;52.320;16.142;2023-04-23T05:49:30;20.20;;;11.85;;
49109;SDS011;34921;52.320;16.142;2023-04-23T05:54:34;15.40;;;10.55;;
49109;SDS011;34921;52.320;16.142;2023-04-23T06:02:06;19.80;;;10.63;;
49109;SDS011;34921;52.320;16.142;2023-04-23T06:04:38;15.70;;;10.10;;
49109;SDS011;34921;52.320;16.142;2023-04-23T06:12:15;14.10;;;10.00;;
49109;SDS011;34921;52.320;16.142;2023-04-23T06:30:40;13.78;;;9.10;;
49109;SDS011;34921;52.320;16.142;2023-04-23T06:45:46;14.38;;;7.53;;
49109;SDS011;34921;52.320;16.142;2023-04-23T06:50:51;12.05;;;7.62;;
49109;SDS011;34921;52.320;16.142;2023-04-23T06:53:22;12.20;;;7.53;;
49109;SDS011;34921;52.320;16.142;2023-04-23T06:55:53;10.80;;;7.20;;
49109;SDS011;34921;52.320;16.142;2023-04-23T07:08:31;10.50;;;6.60;;
49109;SDS011;34921;52.320;16.142;2023-04-23T07:16:01;11.85;;;7.08;;
49109;SDS011;34921;52.320;16.142;2023-04-23T07:21:05;12.75;;;6.75;;
49109;SDS011;34921;52.320;16.142;2023-04-23T07:23:36;10.32;;;6.40;;
49109;SDS011;34921;52.320;16.142;2023-04-23T07:26:07;11.03;;;6.67;;
49109;SDS011;34921;52.320;16.142;2023-04-23T07:28:38;11.70;;;6.85;;
49109;SDS011;34921;52.320;16.142;2023-04-23T07:36:20;9.95;;;5.72;;
49109;SDS011;34921;52.320;16.142;2023-04-23T07:44:21;12.13;;;6.72;;
49109;SDS011;34921;52.320;16.142;2023-04-23T08:00:16;9.80;;;6.25;;
49109;SDS011;34921;52.320;16.142;2023-04-23T08:15:43;9.73;;;5.70;;
49109;SDS011;34921;52.320;16.142;2023-04-23T08:23:46;9.55;;;5.50;;
49109;SDS011;34921;52.320;16.142;2023-04-23T08:31:36;9.38;;;5.60;;
49109;SDS011;34921;52.320;16.142;2023-04-23T08:46:52;8.07;;;4.93;;
49109;SDS011;34921;52.320;16.142;2023-04-23T08:52:15;8.03;;;4.97;;
49109;SDS011;34921;52.320;16.142;2023-04-23T08:54:49;8.03;;;5.47;;
49109;SDS011;34921;52.320;16.142;2023-04-23T08:57:28;10.82;;;5.08;;
49109;SDS011;34921;52.320;16.142;2023-04-23T09:13:00;7.42;;;4.97;;
49109;SDS011;34921;52.320;16.142;2023-04-23T09:18:05;8.55;;;4.58;;
49109;SDS011;34921;52.320;16.142;2023-04-23T09:23:08;9.65;;;5.50;;
49109;SDS011;34921;52.320;16.142;2023-04-23T09:25:36;9.03;;;5.05;;
49109;SDS011;34921;52.320;16.142;2023-04-23T09:30:38;7.90;;;5.20;;
49109;SDS011;34921;52.320;16.142;2023-04-23T09:54:52;7.87;;;4.90;;
49109;SDS011;34921;52.320;16.142;2023-04-23T10:00:19;6.30;;;4.28;;
49109;SDS011;34921;52.320;16.142;2023-04-23T10:02:59;7.53;;;4.73;;
49109;SDS011;34921;52.320;16.142;2023-04-23T10:10:57;7.58;;;4.20;;
49109;SDS011;34921;52.320;16.142;2023-04-23T10:13:25;8.33;;;4.67;;
49109;SDS011;34921;52.320;16.142;2023-04-23T10:15:53;7.17;;;4.40;;
49109;SDS011;34921;52.320;16.142;2023-04-23T10:18:20;6.45;;;4.20;;
49109;SDS011;34921;52.320;16.142;2023-04-23T10:20:48;6.08;;;4.53;;
49109;SDS011;34921;52.320;16.142;2023-04-23T10:23:16;9.15;;;4.50;;
49109;SDS011;34921;52.320;16.142;2023-04-23T10:25:44;5.90;;;3.55;;
49109;SDS011;34921;52.320;16.142;2023-04-23T10:28:12;5.90;;;3.30;;
49109;SDS011;34921;52.320;16.142;2023-04-23T10:30:41;5.92;;;2.70;;
49109;SDS011;34921;52.320;16.142;2023-04-23T10:33:10;5.65;;;3.05;;
49109;SDS011;34921;52.320;16.142;2023-04-23T10:35:38;5.42;;;2.85;;
49109;SDS011;34921;52.320;16.142;2023-04-23T10:38:05;5.28;;;2.72;;
49109;SDS011;34921;52.320;16.142;2023-04-23T10:40:33;6.20;;;2.70;;
49109;SDS011;34921;52.320;16.142;2023-04-23T10:43:02;8.83;;;4.05;;
49109;SDS011;34921;52.320;16.142;2023-04-23T10:45:29;4.97;;;3.50;;
49109;SDS011;34921;52.320;16.142;2023-04-23T10:47:58;5.08;;;2.80;;
49109;SDS011;34921;52.320;16.142;2023-04-23T10:50:26;4.75;;;2.80;;
49109;SDS011;34921;52.320;16.142;2023-04-23T10:52:55;5.15;;;2.70;;
49109;SDS011;34921;52.320;16.142;2023-04-23T10:55:23;8.70;;;3.08;;
49109;SDS011;34921;52.320;16.142;2023-04-23T10:57:58;4.72;;;3.00;;
49109;SDS011;34921;52.320;16.142;2023-04-23T11:02:58;5.60;;;2.60;;
49109;SDS011;34921;52.320;16.142;2023-04-23T11:05:27;3.83;;;2.77;;
49109;SDS011;34921;52.320;16.142;2023-04-23T11:08:07;6.30;;;3.08;;
49109;SDS011;34921;52.320;16.142;2023-04-23T11:10:49;4.55;;;3.20;;
49109;SDS011;34921;52.320;16.142;2023-04-23T11:13:22;5.47;;;2.80;;
49109;SDS011;34921;52.320;16.142;2023-04-23T11:21:18;4.78;;;3.08;;
49109;SDS011;34921;52.320;16.142;2023-04-23T11:23:45;6.00;;;3.10;;
49109;SDS011;34921;52.320;16.142;2023-04-23T11:26:16;6.53;;;3.20;;
49109;SDS011;34921;52.320;16.142;2023-04-23T11:28:44;5.65;;;3.22;;
49109;SDS011;34921;52.320;16.142;2023-04-23T11:31:12;5.78;;;3.27;;
49109;SDS011;34921;52.320;16.142;2023-04-23T11:33:43;5.72;;;3.35;;
49109;SDS011;34921;52.320;16.142;2023-04-23T11:36:11;5.00;;;3.10;;
49109;SDS011;34921;52.320;16.142;2023-04-23T11:38:41;7.13;;;3.50;;
49109;SDS011;34921;52.320;16.142;2023-04-23T11:41:08;8.30;;;3.30;;
49109;SDS011;34921;52.320;16.142;2023-04-23T11:46:04;4.65;;;3.10;;
49109;SDS011;34921;52.320;16.142;2023-04-23T11:48:35;6.30;;;3.47;;
49109;SDS011;34921;52.320;16.142;2023-04-23T11:51:06;6.53;;;3.47;;
49109;SDS011;34921;52.320;16.142;2023-04-23T11:58:45;8.45;;;4.03;;
49109;SDS011;34921;52.320;16.142;2023-04-23T12:01:16;9.93;;;4.22;;
49109;SDS011;34921;52.320;16.142;2023-04-23T12:06:14;6.35;;;4.65;;
49109;SDS011;34921;52.320;16.142;2023-04-23T12:08:45;8.58;;;4.97;;
49109;SDS011;34921;52.320;16.142;2023-04-23T12:11:13;6.20;;;3.90;;
49109;SDS011;34921;52.320;16.142;2023-04-23T12:23:42;6.12;;;4.37;;
49109;SDS011;34921;52.320;16.142;2023-04-23T12:31:17;9.28;;;5.75;;
49109;SDS011;34921;52.320;16.142;2023-04-23T12:34:24;9.63;;;5.60;;
49109;SDS011;34921;52.320;16.142;2023-04-23T12:36:51;8.40;;;5.15;;
49109;SDS011;34921;52.320;16.142;2023-04-23T12:39:28;7.00;;;4.12;;
49109;SDS011;34921;52.320;16.142;2023-04-23T12:42:06;4.83;;;3.60;;
49109;SDS011;34921;52.320;16.142;2023-04-23T12:44:39;6.20;;;4.00;;
49109;SDS011;34921;52.320;16.142;2023-04-23T12:47:10;6.35;;;3.77;;
49109;SDS011;34921;52.320;16.142;2023-04-23T12:49:41;5.80;;;3.30;;
49109;SDS011;34921;52.320;16.142;2023-04-23T12:55:03;4.87;;;3.35;;
49109;SDS011;34921;52.320;16.142;2023-04-23T13:02:38;6.33;;;3.85;;
49109;SDS011;34921;52.320;16.142;2023-04-23T13:25:36;5.65;;;3.47;;
49109;SDS011;34921;52.320;16.142;2023-04-23T13:30:48;4.77;;;3.43;;
49109;SDS011;34921;52.320;16.142;2023-04-23T13:33:16;5.75;;;3.42;;
49109;SDS011;34921;52.320;16.142;2023-04-23T13:35:47;6.47;;;3.20;;
49109;SDS011;34921;52.320;16.142;2023-04-23T13:38:15;4.70;;;3.25;;
49109;SDS011;34921;52.320;16.142;2023-04-23T13:40:44;4.85;;;2.70;;
49109;SDS011;34921;52.320;16.142;2023-04-23T13:43:12;4.53;;;2.98;;
49109;SDS011;34921;52.320;16.142;2023-04-23T13:45:42;5.67;;;3.30;;
49109;SDS011;34921;52.320;16.142;2023-04-23T13:48:10;7.60;;;4.37;;
49109;SDS011;34921;52.320;16.142;2023-04-23T13:50:39;6.53;;;3.60;;
49109;SDS011;34921;52.320;16.142;2023-04-23T13:53:07;5.00;;;3.87;;
49109;SDS011;34921;52.320;16.142;2023-04-23T13:55:37;5.03;;;3.45;;
49109;SDS011;34921;52.320;16.142;2023-04-23T13:58:05;5.55;;;3.22;;
49109;SDS011;34921;52.320;16.142;2023-04-23T14:00:34;5.60;;;3.05;;
49109;SDS011;34921;52.320;16.142;2023-04-23T14:03:01;4.62;;;3.08;;
49109;SDS011;34921;52.320;16.142;2023-04-23T14:05:29;4.75;;;2.80;;
49109;SDS011;34921;52.320;16.142;2023-04-23T14:07:57;4.25;;;2.75;;
49109;SDS011;34921;52.320;16.142;2023-04-23T14:10:26;3.75;;;2.60;;
49109;SDS011;34921;52.320;16.142;2023-04-23T14:12:54;4.47;;;2.90;;
49109;SDS011;34921;52.320;16.142;2023-04-23T14:15:21;6.28;;;3.27;;
49109;SDS011;34921;52.320;16.142;2023-04-23T14:17:50;4.33;;;2.92;;
49109;SDS011;34921;52.320;16.142;2023-04-23T14:20:17;7.08;;;3.27;;
49109;SDS011;34921;52.320;16.142;2023-04-23T14:22:49;4.53;;;2.92;;
49109;SDS011;34921;52.320;16.142;2023-04-23T14:25:24;5.30;;;3.08;;
49109;SDS011;34921;52.320;16.142;2023-04-23T14:27:56;6.25;;;3.55;;
49109;SDS011;34921;52.320;16.142;2023-04-23T14:30:28;5.25;;;3.15;;
49109;SDS011;34921;52.320;16.142;2023-04-23T14:32:55;4.50;;;2.65;;
49109;SDS011;34921;52.320;16.142;2023-04-23T14:35:23;5.67;;;3.10;;
49109;SDS011;34921;52.320;16.142;2023-04-23T14:37:51;5.90;;;3.62;;
49109;SDS011;34921;52.320;16.142;2023-04-23T14:40:18;5.60;;;3.55;;
49109;SDS011;34921;52.320;16.142;2023-04-23T14:42:46;5.75;;;3.77;;
49109;SDS011;34921;52.320;16.142;2023-04-23T14:45:14;6.62;;;3.08;;
49109;SDS011;34921;52.320;16.142;2023-04-23T14:47:44;4.87;;;3.33;;
49109;SDS011;34921;52.320;16.142;2023-04-23T14:50:14;5.20;;;2.98;;
49109;SDS011;34921;52.320;16.142;2023-04-23T14:52:45;4.00;;;2.15;;
49109;SDS011;34921;52.320;16.142;2023-04-23T14:55:14;4.20;;;2.47;;
49109;SDS011;34921;52.320;16.142;2023-04-23T14:57:42;4.70;;;2.30;;
49109;SDS011;34921;52.320;16.142;2023-04-23T15:00:09;3.62;;;2.22;;
49109;SDS011;34921;52.320;16.142;2023-04-23T15:02:38;5.62;;;2.45;;
49109;SDS011;34921;52.320;16.142;2023-04-23T15:05:11;4.10;;;2.55;;
49109;SDS011;34921;52.320;16.142;2023-04-23T15:07:39;5.37;;;2.02;;
49109;SDS011;34921;52.320;16.142;2023-04-23T15:10:06;3.12;;;2.00;;
49109;SDS011;34921;52.320;16.142;2023-04-23T15:12:48;4.83;;;2.60;;
49109;SDS011;34921;52.320;16.142;2023-04-23T15:18:00;7.62;;;4.50;;
49109;SDS011;34921;52.320;16.142;2023-04-23T15:20:28;4.75;;;3.17;;
49109;SDS011;34921;52.320;16.142;2023-04-23T15:22:55;7.90;;;4.37;;
49109;SDS011;34921;52.320;16.142;2023-04-23T15:25:22;8.33;;;3.95;;
49109;SDS011;34921;52.320;16.142;2023-04-23T15:27:50;7.20;;;4.60;;
49109;SDS011;34921;52.320;16.142;2023-04-23T15:32:52;7.80;;;5.30;;
49109;SDS011;34921;52.320;16.142;2023-04-23T15:37:52;9.00;;;5.60;;
49109;SDS011;34921;52.320;16.142;2023-04-23T15:42:55;10.38;;;6.85;;
49109;SDS011;34921;52.320;16.142;2023-04-23T15:50:32;9.83;;;5.37;;
49109;SDS011;34921;52.320;16.142;2023-04-23T15:55:32;16.70;;;12.93;;
49109;SDS011;34921;52.320;16.142;2023-04-23T15:57:59;38.95;;;22.37;;
49109;SDS011;34921;52.320;16.142;2023-04-23T16:10:45;14.05;;;7.45;;
49109;SDS011;34921;52.320;16.142;2023-04-23T16:13:13;9.50;;;6.85;;
49109;SDS011;34921;52.320;16.142;2023-04-23T16:18:09;4.95;;;3.55;;
49109;SDS011;34921;52.320;16.142;2023-04-23T16:20:36;6.60;;;3.30;;
49109;SDS011;34921;52.320;16.142;2023-04-23T16:23:03;11.48;;;5.78;;
49109;SDS011;34921;52.320;16.142;2023-04-23T16:25:32;7.65;;;4.28;;
49109;SDS011;34921;52.320;16.142;2023-04-23T16:30:28;11.57;;;5.33;;
49109;SDS011;34921;52.320;16.142;2023-04-23T16:32:59;12.15;;;5.37;;
49109;SDS011;34921;52.320;16.142;2023-04-23T16:35:26;8.95;;;3.50;;
49109;SDS011;34921;52.320;16.142;2023-04-23T16:37:53;11.28;;;6.72;;
49109;SDS011;34921;52.320;16.142;2023-04-23T16:45:28;17.70;;;13.58;;
49109;SDS011;34921;52.320;16.142;2023-04-23T16:48:00;9.28;;;6.62;;
49109;SDS011;34921;52.320;16.142;2023-04-23T16:52:57;8.33;;;4.22;;
49109;SDS011;34921;52.320;16.142;2023-04-23T16:55:24;11.03;;;5.42;;
49109;SDS011;34921;52.320;16.142;2023-04-23T16:57:51;6.60;;;3.30;;
49109;SDS011;34921;52.320;16.142;2023-04-23T17:08:24;9.50;;;4.90;;
49109;SDS011;34921;52.320;16.142;2023-04-23T17:10:51;8.78;;;4.37;;
49109;SDS011;34921;52.320;16.142;2023-04-23T17:13:18;11.97;;;5.20;;
49109;SDS011;34921;52.320;16.142;2023-04-23T17:20:58;5.87;;;3.45;;
49109;SDS011;34921;52.320;16.142;2023-04-23T17:26:00;13.62;;;7.22;;
49109;SDS011;34921;52.320;16.142;2023-04-23T17:39:00;23.45;;;15.18;;
49109;SDS011;34921;52.320;16.142;2023-04-23T17:41:27;15.38;;;9.65;;
49109;SDS011;34921;52.320;16.142;2023-04-23T17:51:40;15.65;;;9.50;;
49109;SDS011;34921;52.320;16.142;2023-04-23T17:54:11;20.50;;;9.65;;
49109;SDS011;34921;52.320;16.142;2023-04-23T18:01:41;22.73;;;14.27;;
49109;SDS011;34921;52.320;16.142;2023-04-23T18:09:19;10.78;;;3.87;;
49109;SDS011;34921;52.320;16.142;2023-04-23T18:11:47;10.55;;;6.53;;
49109;SDS011;34921;52.320;16.142;2023-04-23T18:14:14;9.65;;;4.80;;
49109;SDS011;34921;52.320;16.142;2023-04-23T18:16:42;7.70;;;4.17;;
49109;SDS011;34921;52.320;16.142;2023-04-23T18:19:09;8.20;;;3.67;;
49109;SDS011;34921;52.320;16.142;2023-04-23T18:21:36;31.70;;;15.70;;
49109;SDS011;34921;52.320;16.142;2023-04-23T18:24:05;28.70;;;14.23;;
49109;SDS011;34921;52.320;16.142;2023-04-23T18:26:32;11.78;;;5.65;;
49109;SDS011;34921;52.320;16.142;2023-04-23T18:29:01;10.43;;;6.55;;
49109;SDS011;34921;52.320;16.142;2023-04-23T18:31:28;26.52;;;14.68;;
49109;SDS011;34921;52.320;16.142;2023-04-23T18:33:59;27.55;;;15.08;;
49109;SDS011;34921;52.320;16.142;2023-04-23T18:36:30;27.82;;;16.23;;
49109;SDS011;34921;52.320;16.142;2023-04-23T18:38:59;41.08;;;23.25;;
49109;SDS011;34921;52.320;16.142;2023-04-23T18:41:26;48.48;;;28.45;;
49109;SDS011;34921;52.320;16.142;2023-04-23T18:43:55;62.27;;;36.55;;
49109;SDS011;34921;52.320;16.142;2023-04-23T18:46:25;75.77;;;44.03;;
49109;SDS011;34921;52.320;16.142;2023-04-23T18:51:50;45.45;;;27.50;;
49109;SDS011;34921;52.320;16.142;2023-04-23T18:54:17;45.12;;;27.87;;
49109;SDS011;34921;52.320;16.142;2023-04-23T18:56:45;39.08;;;24.70;;
49109;SDS011;34921;52.320;16.142;2023-04-23T18:59:13;30.60;;;17.77;;
49109;SDS011;34921;52.320;16.142;2023-04-23T19:01:40;33.78;;;19.52;;
49109;SDS011;34921;52.320;16.142;2023-04-23T19:04:10;44.73;;;22.17;;
49109;SDS011;34921;52.320;16.142;2023-04-23T19:06:37;49.73;;;23.62;;
49109;SDS011;34921;52.320;16.142;2023-04-23T19:09:04;39.50;;;19.75;;
49109;SDS011;34921;52.320;16.142;2023-04-23T19:11:32;39.23;;;20.72;;
49109;SDS011;34921;52.320;16.142;2023-04-23T19:14:03;31.50;;;17.17;;
49109;SDS011;34921;52.320;16.142;2023-04-23T19:16:31;32.70;;;17.17;;
49109;SDS011;34921;52.320;16.142;2023-04-23T19:18:58;29.02;;;16.10;;
49109;SDS011;34921;52.320;16.142;2023-04-23T19:21:25;29.48;;;15.90;;
49109;SDS011;34921;52.320;16.142;2023-04-23T19:23:53;26.33;;;14.78;;
49109;SDS011;34921;52.320;16.142;2023-04-23T19:26:22;25.27;;;14.98;;
49109;SDS011;34921;52.320;16.142;2023-04-23T19:28:49;25.82;;;15.43;;
49109;SDS011;34921;52.320;16.142;2023-04-23T19:31:17;27.17;;;16.45;;
49109;SDS011;34921;52.320;16.142;2023-04-23T19:33:44;24.25;;;15.95;;
49109;SDS011;34921;52.320;16.142;2023-04-23T19:36:13;27.37;;;18.02;;
49109;SDS011;34921;52.320;16.142;2023-04-23T19:38:40;27.35;;;16.23;;
49109;SDS011;34921;52.320;16.142;2023-04-23T19:41:08;23.50;;;14.70;;
49109;SDS011;34921;52.320;16.142;2023-04-23T19:43:35;25.25;;;15.72;;
49109;SDS011;34921;52.320;16.142;2023-04-23T19:46:03;98.82;;;42.88;;
49109;SDS011;34921;52.320;16.142;2023-04-23T19:48:30;84.80;;;39.98;;
49109;SDS011;34921;52.320;16.142;2023-04-23T19:50:57;70.05;;;34.60;;
49109;SDS011;34921;52.320;16.142;2023-04-23T19:53:25;76.55;;;35.75;;
49109;SDS011;34921;52.320;16.142;2023-04-23T19:55:53;80.47;;;37.83;;
49109;SDS011;34921;52.320;16.142;2023-04-23T19:58:20;64.20;;;31.48;;
49109;SDS011;34921;52.320;16.142;2023-04-23T20:00:47;54.90;;;28.52;;
49109;SDS011;34921;52.320;16.142;2023-04-23T20:03:15;39.92;;;23.18;;
49109;SDS011;34921;52.320;16.142;2023-04-23T20:05:42;31.90;;;20.52;;
49109;SDS011;34921;52.320;16.142;2023-04-23T20:08:11;29.05;;;19.07;;
49109;SDS011;34921;52.320;16.142;2023-04-23T20:10:41;28.90;;;18.95;;
49109;SDS011;34921;52.320;16.142;2023-04-23T20:13:08;27.90;;;18.87;;
49109;SDS011;34921;52.320;16.142;2023-04-23T20:15:35;29.67;;;20.72;;
49109;SDS011;34921;52.320;16.142;2023-04-23T20:18:03;28.52;;;20.80;;
49109;SDS011;34921;52.320;16.142;2023-04-23T20:20:31;30.97;;;20.68;;
49109;SDS011;34921;52.320;16.142;2023-04-23T20:23:01;35.13;;;21.02;;
49109;SDS011;34921;52.320;16.142;2023-04-23T20:25:28;37.10;;;22.85;;
49109;SDS011;34921;52.320;16.142;2023-04-23T20:27:55;31.65;;;21.82;;
49109;SDS011;34921;52.320;16.142;2023-04-23T20:30:22;31.68;;;22.67;;
49109;SDS011;34921;52.320;16.142;2023-04-23T20:32:49;34.25;;;23.83;;
49109;SDS011;34921;52.320;16.142;2023-04-23T20:35:17;36.23;;;26.25;;
49109;SDS011;34921;52.320;16.142;2023-04-23T20:37:44;37.28;;;24.45;;
49109;SDS011;34921;52.320;16.142;2023-04-23T20:40:11;41.33;;;25.55;;
49109;SDS011;34921;52.320;16.142;2023-04-23T20:42:39;36.98;;;24.47;;
49109;SDS011;34921;52.320;16.142;2023-04-23T20:45:08;47.27;;;28.38;;
49109;SDS011;34921;52.320;16.142;2023-04-23T20:47:36;43.05;;;27.87;;
49109;SDS011;34921;52.320;16.142;2023-04-23T20:50:03;44.08;;;27.60;;
49109;SDS011;34921;52.320;16.142;2023-04-23T20:52:30;38.60;;;25.40;;
49109;SDS011;34921;52.320;16.142;2023-04-23T20:55:01;34.00;;;22.50;;
49109;SDS011;34921;52.320;16.142;2023-04-23T20:57:29;34.40;;;22.35;;
49109;SDS011;34921;52.320;16.142;2023-04-23T20:59:55;33.42;;;22.30;;
49109;SDS011;34921;52.320;16.142;2023-04-23T21:02:23;31.33;;;21.45;;
49109;SDS011;34921;52.320;16.142;2023-04-23T21:04:50;29.15;;;19.98;;
49109;SDS011;34921;52.320;16.142;2023-04-23T21:07:17;28.45;;;19.45;;
49109;SDS011;34921;52.320;16.142;2023-04-23T21:09:44;26.80;;;18.48;;
49109;SDS011;34921;52.320;16.142;2023-04-23T21:12:11;27.13;;;18.37;;
49109;SDS011;34921;52.320;16.142;2023-04-23T21:14:38;24.27;;;17.62;;
49109;SDS011;34921;52.320;16.142;2023-04-23T21:17:05;23.02;;;16.65;;
49109;SDS011;34921;52.320;16.142;2023-04-23T21:19:32;24.00;;;17.12;;
49109;SDS011;34921;52.320;16.142;2023-04-23T21:21:59;27.85;;;17.75;;
49109;SDS011;34921;52.320;16.142;2023-04-23T21:24:27;83.65;;;36.77;;
49109;SDS011;34921;52.320;16.142;2023-04-23T21:26:54;96.10;;;41.85;;
49109;SDS011;34921;52.320;16.142;2023-04-23T21:29:21;92.88;;;40.80;;
49109;SDS011;34921;52.320;16.142;2023-04-23T21:31:49;94.00;;;44.50;;
49109;SDS011;34921;52.320;16.142;2023-04-23T21:34:17;108.83;;;45.17;;
49109;SDS011;34921;52.320;16.142;2023-04-23T21:36:45;100.95;;;43.85;;
49109;SDS011;34921;52.320;16.142;2023-04-23T21:39:12;83.50;;;37.17;;
49109;SDS011;34921;52.320;16.142;2023-04-23T21:41:39;63.17;;;30.60;;
49109;SDS011;34921;52.320;16.142;2023-04-23T21:44:09;50.08;;;26.12;;
49109;SDS011;34921;52.320;16.142;2023-04-23T21:46:36;36.98;;;22.17;;
49109;SDS011;34921;52.320;16.142;2023-04-23T21:49:03;31.20;;;19.65;;
49109;SDS011;34921;52.320;16.142;2023-04-23T21:51:30;36.70;;;20.50;;
49109;SDS011;34921;52.320;16.142;2023-04-23T21:54:02;30.85;;;19.37;;
49109;SDS011;34921;52.320;16.142;2023-04-23T21:56:31;31.27;;;19.57;;
49109;SDS011;34921;52.320;16.142;2023-04-23T21:58:58;31.07;;;21.10;;
49109;SDS011;34921;52.320;16.142;2023-04-23T22:01:25;29.63;;;20.15;;
49109;SDS011;34921;52.320;16.142;2023-04-23T22:03:52;27.30;;;19.27;;
49109;SDS011;34921;52.320;16.142;2023-04-23T22:06:19;28.40;;;19.02;;
49109;SDS011;34921;52.320;16.142;2023-04-23T22:08:46;29.02;;;17.92;;
49109;SDS011;34921;52.320;16.142;2023-04-23T22:11:13;24.37;;;16.73;;
49109;SDS011;34921;52.320;16.142;2023-04-23T22:13:40;24.50;;;17.42;;
49109;SDS011;34921;52.320;16.142;2023-04-23T22:16:07;25.30;;;16.20;;
49109;SDS011;34921;52.320;16.142;2023-04-23T22:18:35;24.63;;;16.23;;
49109;SDS011;34921;52.320;16.142;2023-04-23T22:21:03;21.07;;;15.50;;
49109;SDS011;34921;52.320;16.142;2023-04-23T22:23:31;23.80;;;15.00;;
49109;SDS011;34921;52.320;16.142;2023-04-23T22:25:58;20.48;;;14.10;;
49109;SDS011;34921;52.320;16.142;2023-04-23T22:28:25;15.98;;;10.93;;
49109;SDS011;34921;52.320;16.142;2023-04-23T22:30:52;16.67;;;12.03;;
49109;SDS011;34921;52.320;16.142;2023-04-23T22:33:19;16.57;;;11.88;;
49109;SDS011;34921;52.320;16.142;2023-04-23T22:35:46;20.05;;;12.60;;
49109;SDS011;34921;52.320;16.142;2023-04-23T22:38:13;28.50;;;20.62;;
49109;SDS011;34921;52.320;16.142;2023-04-23T22:40:41;22.30;;;15.72;;
49109;SDS011;34921;52.320;16.142;2023-04-23T22:43:08;25.70;;;17.77;;
49109;SDS011;34921;52.320;16.142;2023-04-23T22:45:35;27.05;;;19.00;;
49109;SDS011;34921;52.320;16.142;2023-04-23T22:48:02;21.80;;;15.93;;
49109;SDS011;34921;52.320;16.142;2023-04-23T22:50:29;19.98;;;14.33;;
49109;SDS011;34921;52.320;16.142;2023-04-23T22:52:56;21.25;;;15.70;;
49109;SDS011;34921;52.320;16.142;2023-04-23T22:55:23;20.57;;;14.30;;
49109;SDS011;34921;52.320;16.142;2023-04-23T22:57:50;21.35;;;14.25;;
49109;SDS011;34921;52.320;16.142;2023-04-23T23:00:17;28.47;;;17.80;;
49109;SDS011;34921;52.320;16.142;2023-04-23T23:02:44;33.55;;;19.73;;
49109;SDS011;34921;52.320;16.142;2023-04-23T23:05:11;31.87;;;19.87;;
49109;SDS011;34921;52.320;16.142;2023-04-23T23:07:39;35.63;;;20.45;;
49109;SDS011;34921;52.320;16.142;2023-04-23T23:10:06;31.27;;;19.17;;
49109;SDS011;34921;52.320;16.142;2023-04-23T23:12:36;31.42;;;18.55;;
49109;SDS011;34921;52.320;16.142;2023-04-23T23:15:05;22.02;;;14.15;;
49109;SDS011;34921;52.320;16.142;2023-04-23T23:17:33;21.48;;;13.20;;
49109;SDS011;34921;52.320;16.142;2023-04-23T23:20:00;17.87;;;12.05;;
49109;SDS011;34921;52.320;16.142;2023-04-23T23:22:27;16.10;;;12.37;;
49109;SDS011;34921;52.320;16.142;2023-04-23T23:24:54;16.73;;;11.60;;
49109;SDS011;34921;52.320;16.142;2023-04-23T23:27:21;15.68;;;11.57;;
49109;SDS011;34921;52.320;16.142;2023-04-23T23:29:48;14.68;;;11.65;;
49109;SDS011;34921;52.320;16.142;2023-04-23T23:32:15;19.55;;;13.35;;
49109;SDS011;34921;52.320;16.142;2023-04-23T23:34:42;24.82;;;15.90;;
49109;SDS011;34921;52.320;16.142;2023-04-23T23:37:09;29.42;;;18.73;;
49109;SDS011;34921;52.320;16.142;2023-04-23T23:39:36;24.87;;;17.25;;
49109;SDS011;34921;52.320;16.142;2023-04-23T23:42:03;29.80;;;17.70;;
49109;SDS011;34921;52.320;16.142;2023-04-23T23:44:31;25.00;;;15.98;;
49109;SDS011;34921;52.320;16.142;2023-04-23T23:46:58;23.10;;;15.50;;
49109;SDS011;34921;52.320;16.142;2023-04-23T23:49:25;23.10;;;15.55;;
49109;SDS011;34921;52.320;16.142;2023-04-23T23:51:52;23.02;;;15.15;;
49109;SDS011;34921;52.320;16.142;2023-04-23T23:54:19;24.65;;;17.30;;
49109;SDS011;34921;52.320;16.142;2023-04-23T23:56:46;28.07;;;18.05;;
49109;SDS011;34921;52.320;16.142;2023-04-23T23:59:13;36.98;;;23.15;;
